sensor_id;sensor_type;location;lat;lon;timestamp;temperature;humidity
47520;DHT22;33252;48.122;11.538;2023-05-23T12:39:07;20.80;96.00
47520;DHT22;33252;48.122;11.538;2023-05-23T12:41:33;20.80;96.30
47520;DHT22;33252;48.122;11.538;2023-05-23T12:44:01;20.80;96.70
47520;DHT22;33252;48.122;11.538;2023-05-23T12:46:27;20.70;97.70
47520;DHT22;33252;48.122;11.538;2023-05-23T12:48:53;20.70;98.10
47520;DHT22;33252;48.122;11.538;2023-05-23T12:51:19;20.70;97.70
47520;DHT22;33252;48.122;11.538;2023-05-23T12:53:46;20.80;97.70
47520;DHT22;33252;48.122;11.538;2023-05-23T12:56:11;21.20;97.80
47520;DHT22;33252;48.122;11.538;2023-05-23T12:58:37;21.50;97.00
47520;DHT22;33252;48.122;11.538;2023-05-23T13:01:03;21.70;96.40
47520;DHT22;33252;48.122;11.538;2023-05-23T13:03:29;21.80;96.20
47520;DHT22;33252;48.122;11.538;2023-05-23T13:05:58;21.40;96.90
47520;DHT22;33252;48.122;11.538;2023-05-23T13:08:25;21.30;96.80
47520;DHT22;33252;48.122;11.538;2023-05-23T13:10:52;21.10;96.30
47520;DHT22;33252;48.122;11.538;2023-05-23T13:13:18;21.30;95.50
47520;DHT22;33252;48.122;11.538;2023-05-23T13:15:44;21.60;96.10
47520;DHT22;33252;48.122;11.538;2023-05-23T13:18:10;21.90;95.20
47520;DHT22;33252;48.122;11.538;2023-05-23T13:20:35;22.20;95.10
47520;DHT22;33252;48.122;11.538;2023-05-23T13:23:02;22.30;94.50
47520;DHT22;33252;48.122;11.538;2023-05-23T13:25:28;22.40;94.40
47520;DHT22;33252;48.122;11.538;2023-05-23T13:27:54;22.30;94.00
47520;DHT22;33252;48.122;11.538;2023-05-23T13:30:22;22.00;95.20
47520;DHT22;33252;48.122;11.538;2023-05-23T13:32:48;21.90;94.40
47520;DHT22;33252;48.122;11.538;2023-05-23T13:35:14;22.30;94.70
47520;DHT22;33252;48.122;11.538;2023-05-23T13:37:40;22.60;93.30
47520;DHT22;33252;48.122;11.538;2023-05-23T13:40:06;23.10;93.20
47520;DHT22;33252;48.122;11.538;2023-05-23T13:42:33;23.10;92.40
47520;DHT22;33252;48.122;11.538;2023-05-23T13:44:59;22.50;93.10
47520;DHT22;33252;48.122;11.538;2023-05-23T13:47:25;23.00;92.50
47520;DHT22;33252;48.122;11.538;2023-05-23T13:49:51;23.40;92.60
47520;DHT22;33252;48.122;11.538;2023-05-23T13:52:16;23.30;91.80
47520;DHT22;33252;48.122;11.538;2023-05-23T13:54:42;22.80;92.60
47520;DHT22;33252;48.122;11.538;2023-05-23T13:57:07;22.50;92.60
47520;DHT22;33252;48.122;11.538;2023-05-23T13:59:33;22.20;93.70
47520;DHT22;33252;48.122;11.538;2023-05-23T14:01:59;22.10;92.90
47520;DHT22;33252;48.122;11.538;2023-05-23T14:04:24;22.40;93.20
47520;DHT22;33252;48.122;11.538;2023-05-23T14:06:50;22.60;92.30
47520;DHT22;33252;48.122;11.538;2023-05-23T14:09:16;22.50;92.70
47520;DHT22;33252;48.122;11.538;2023-05-23T14:11:42;22.10;92.10
47520;DHT22;33252;48.122;11.538;2023-05-23T14:14:08;21.90;92.70
47520;DHT22;33252;48.122;11.538;2023-05-23T14:16:34;21.80;92.80
47520;DHT22;33252;48.122;11.538;2023-05-23T14:18:59;21.80;93.20
47520;DHT22;33252;48.122;11.538;2023-05-23T14:21:25;21.60;92.80
47520;DHT22;33252;48.122;11.538;2023-05-23T14:23:52;21.50;92.70
47520;DHT22;33252;48.122;11.538;2023-05-23T14:26:18;21.50;93.50
47520;DHT22;33252;48.122;11.538;2023-05-23T14:28:44;21.30;93.00
47520;DHT22;33252;48.122;11.538;2023-05-23T14:31:09;21.40;93.30
47520;DHT22;33252;48.122;11.538;2023-05-23T14:33:35;21.50;93.50
47520;DHT22;33252;48.122;11.538;2023-05-23T14:36:01;21.40;96.30
47520;DHT22;33252;48.122;11.538;2023-05-23T14:38:27;21.00;97.10
47520;DHT22;33252;48.122;11.538;2023-05-23T14:40:52;20.70;97.60
47520;DHT22;33252;48.122;11.538;2023-05-23T14:43:19;20.90;98.10
47520;DHT22;33252;48.122;11.538;2023-05-23T14:45:45;20.90;97.60
47520;DHT22;33252;48.122;11.538;2023-05-23T14:48:11;20.90;97.90
47520;DHT22;33252;48.122;11.538;2023-05-23T14:50:36;20.70;97.30
47520;DHT22;33252;48.122;11.538;2023-05-23T14:53:02;20.60;97.60
47520;DHT22;33252;48.122;11.538;2023-05-23T14:55:28;20.60;98.30
47520;DHT22;33252;48.122;11.538;2023-05-23T14:57:54;20.70;98.80
47520;DHT22;33252;48.122;11.538;2023-05-23T15:00:21;20.70;96.00
47520;DHT22;33252;48.122;11.538;2023-05-23T15:02:47;20.80;94.90
47520;DHT22;33252;48.122;11.538;2023-05-23T15:05:12;20.70;94.50
47520;DHT22;33252;48.122;11.538;2023-05-23T15:07:39;20.80;94.20
47520;DHT22;33252;48.122;11.538;2023-05-23T15:10:06;20.90;95.20
47520;DHT22;33252;48.122;11.538;2023-05-23T15:12:33;20.90;95.20
47520;DHT22;33252;48.122;11.538;2023-05-23T15:14:58;21.00;94.80
47520;DHT22;33252;48.122;11.538;2023-05-23T15:17:33;20.70;94.80
47520;DHT22;33252;48.122;11.538;2023-05-23T15:19:59;20.70;94.70
47520;DHT22;33252;48.122;11.538;2023-05-23T15:22:25;20.60;94.60
47520;DHT22;33252;48.122;11.538;2023-05-23T15:24:51;20.50;94.90
47520;DHT22;33252;48.122;11.538;2023-05-23T15:27:17;20.40;94.30
47520;DHT22;33252;48.122;11.538;2023-05-23T15:29:44;20.40;94.90
47520;DHT22;33252;48.122;11.538;2023-05-23T15:32:10;20.40;94.50
47520;DHT22;33252;48.122;11.538;2023-05-23T15:34:36;20.20;94.50
47520;DHT22;33252;48.122;11.538;2023-05-23T15:37:01;20.40;94.90
47520;DHT22;33252;48.122;11.538;2023-05-23T15:39:27;20.60;94.90
47520;DHT22;33252;48.122;11.538;2023-05-23T15:41:53;20.60;94.20
47520;DHT22;33252;48.122;11.538;2023-05-23T15:44:18;20.50;94.10
47520;DHT22;33252;48.122;11.538;2023-05-23T15:46:47;20.40;94.10
47520;DHT22;33252;48.122;11.538;2023-05-23T15:49:13;20.30;94.70
47520;DHT22;33252;48.122;11.538;2023-05-23T15:51:38;20.40;94.40
47520;DHT22;33252;48.122;11.538;2023-05-23T15:54:04;20.50;94.00
47520;DHT22;33252;48.122;11.538;2023-05-23T15:56:30;20.30;93.90
47520;DHT22;33252;48.122;11.538;2023-05-23T15:58:55;20.40;93.30
47520;DHT22;33252;48.122;11.538;2023-05-23T16:01:21;20.40;93.90
47520;DHT22;33252;48.122;11.538;2023-05-23T16:03:48;20.30;93.30
47520;DHT22;33252;48.122;11.538;2023-05-23T16:06:13;20.50;93.50
47520;DHT22;33252;48.122;11.538;2023-05-23T16:08:39;20.50;93.00
47520;DHT22;33252;48.122;11.538;2023-05-23T16:11:05;20.30;92.50
47520;DHT22;33252;48.122;11.538;2023-05-23T16:13:31;20.30;93.00
47520;DHT22;33252;48.122;11.538;2023-05-23T16:15:57;20.20;92.40
47520;DHT22;33252;48.122;11.538;2023-05-23T16:18:23;20.30;92.20
47520;DHT22;33252;48.122;11.538;2023-05-23T16:20:49;20.30;91.90
47520;DHT22;33252;48.122;11.538;2023-05-23T16:23:14;20.40;91.80
47520;DHT22;33252;48.122;11.538;2023-05-23T16:25:40;20.70;92.00
47520;DHT22;33252;48.122;11.538;2023-05-23T16:28:07;21.10;91.30
47520;DHT22;33252;48.122;11.538;2023-05-23T16:30:32;21.40;92.20
47520;DHT22;33252;48.122;11.538;2023-05-23T16:32:58;21.20;92.80
47520;DHT22;33252;48.122;11.538;2023-05-23T16:35:24;21.00;92.60
47520;DHT22;33252;48.122;11.538;2023-05-23T16:37:49;20.80;92.60
47520;DHT22;33252;48.122;11.538;2023-05-23T16:40:15;20.60;92.50
47520;DHT22;33252;48.122;11.538;2023-05-23T16:42:41;20.40;92.60
47520;DHT22;33252;48.122;11.538;2023-05-23T16:45:07;20.50;92.70
47520;DHT22;33252;48.122;11.538;2023-05-23T16:47:32;20.40;92.50
47520;DHT22;33252;48.122;11.538;2023-05-23T16:49:58;20.40;93.00
47520;DHT22;33252;48.122;11.538;2023-05-23T16:52:24;20.30;92.90
47520;DHT22;33252;48.122;11.538;2023-05-23T16:54:49;20.30;92.50
47520;DHT22;33252;48.122;11.538;2023-05-23T16:57:15;20.30;93.00
47520;DHT22;33252;48.122;11.538;2023-05-23T16:59:41;20.20;92.90
47520;DHT22;33252;48.122;11.538;2023-05-23T17:02:08;20.00;93.30
47520;DHT22;33252;48.122;11.538;2023-05-23T17:04:35;20.10;93.70
47520;DHT22;33252;48.122;11.538;2023-05-23T17:07:01;19.90;92.60
47520;DHT22;33252;48.122;11.538;2023-05-23T17:09:27;20.00;93.20
47520;DHT22;33252;48.122;11.538;2023-05-23T17:11:52;20.00;92.70
47520;DHT22;33252;48.122;11.538;2023-05-23T17:14:18;19.80;92.80
47520;DHT22;33252;48.122;11.538;2023-05-23T17:16:44;19.60;93.00
47520;DHT22;33252;48.122;11.538;2023-05-23T17:19:10;19.50;92.90
47520;DHT22;33252;48.122;11.538;2023-05-23T17:21:35;19.50;92.80
47520;DHT22;33252;48.122;11.538;2023-05-23T17:24:02;19.40;93.20
47520;DHT22;33252;48.122;11.538;2023-05-23T17:26:28;19.50;93.00
47520;DHT22;33252;48.122;11.538;2023-05-23T17:28:54;19.60;92.60
47520;DHT22;33252;48.122;11.538;2023-05-23T17:31:19;19.60;92.90
47520;DHT22;33252;48.122;11.538;2023-05-23T17:33:45;19.60;93.50
47520;DHT22;33252;48.122;11.538;2023-05-23T17:36:11;19.50;93.00
47520;DHT22;33252;48.122;11.538;2023-05-23T17:38:37;19.50;93.30
47520;DHT22;33252;48.122;11.538;2023-05-23T17:41:03;19.40;92.90
47520;DHT22;33252;48.122;11.538;2023-05-23T17:43:29;19.30;93.50
47520;DHT22;33252;48.122;11.538;2023-05-23T17:45:55;19.30;93.50
47520;DHT22;33252;48.122;11.538;2023-05-23T17:48:21;19.30;93.30
47520;DHT22;33252;48.122;11.538;2023-05-23T17:50:46;19.10;93.10
47520;DHT22;33252;48.122;11.538;2023-05-23T17:53:12;19.10;93.30
47520;DHT22;33252;48.122;11.538;2023-05-23T17:55:39;19.10;92.90
47520;DHT22;33252;48.122;11.538;2023-05-23T17:58:05;19.10;93.10
47520;DHT22;33252;48.122;11.538;2023-05-23T18:00:31;19.10;93.10
47520;DHT22;33252;48.122;11.538;2023-05-23T18:02:56;18.90;93.30
47520;DHT22;33252;48.122;11.538;2023-05-23T18:05:22;18.90;92.70
47520;DHT22;33252;48.122;11.538;2023-05-23T18:07:48;18.80;93.60
47520;DHT22;33252;48.122;11.538;2023-05-23T18:10:14;18.80;93.20
47520;DHT22;33252;48.122;11.538;2023-05-23T18:12:40;18.90;93.20
47520;DHT22;33252;48.122;11.538;2023-05-23T18:15:06;18.90;93.30
47520;DHT22;33252;48.122;11.538;2023-05-23T18:17:32;18.90;92.60
47520;DHT22;33252;48.122;11.538;2023-05-23T18:19:58;18.80;92.40
47520;DHT22;33252;48.122;11.538;2023-05-23T18:22:23;18.80;92.90
47520;DHT22;33252;48.122;11.538;2023-05-23T18:24:49;18.70;92.30
47520;DHT22;33252;48.122;11.538;2023-05-23T18:27:15;18.70;92.90
47520;DHT22;33252;48.122;11.538;2023-05-23T18:29:41;18.60;92.40
47520;DHT22;33252;48.122;11.538;2023-05-23T18:32:06;18.60;92.20
47520;DHT22;33252;48.122;11.538;2023-05-23T18:34:32;18.70;93.10
47520;DHT22;33252;48.122;11.538;2023-05-23T18:36:58;18.60;92.00
47520;DHT22;33252;48.122;11.538;2023-05-23T18:39:23;18.70;92.80
47520;DHT22;33252;48.122;11.538;2023-05-23T18:41:49;18.70;92.00
47520;DHT22;33252;48.122;11.538;2023-05-23T18:44:15;18.60;91.70
47520;DHT22;33252;48.122;11.538;2023-05-23T18:46:41;18.40;92.40
47520;DHT22;33252;48.122;11.538;2023-05-23T18:49:07;18.50;92.20
47520;DHT22;33252;48.122;11.538;2023-05-23T18:51:32;18.50;92.20
47520;DHT22;33252;48.122;11.538;2023-05-23T18:53:59;18.60;92.50
47520;DHT22;33252;48.122;11.538;2023-05-23T18:56:25;18.50;92.20
47520;DHT22;33252;48.122;11.538;2023-05-23T18:58:51;18.50;92.80
47520;DHT22;33252;48.122;11.538;2023-05-23T19:01:17;18.30;92.30
47520;DHT22;33252;48.122;11.538;2023-05-23T19:03:42;18.30;92.70
47520;DHT22;33252;48.122;11.538;2023-05-23T19:06:10;18.40;92.80
47520;DHT22;33252;48.122;11.538;2023-05-23T19:08:35;18.20;93.10
47520;DHT22;33252;48.122;11.538;2023-05-23T19:11:01;18.30;93.10
47520;DHT22;33252;48.122;11.538;2023-05-23T19:13:27;18.30;93.00
47520;DHT22;33252;48.122;11.538;2023-05-23T19:15:53;18.20;93.20
47520;DHT22;33252;48.122;11.538;2023-05-23T19:18:18;18.20;93.10
47520;DHT22;33252;48.122;11.538;2023-05-23T19:20:45;18.20;93.10
47520;DHT22;33252;48.122;11.538;2023-05-23T19:23:12;18.20;93.50
47520;DHT22;33252;48.122;11.538;2023-05-23T19:25:37;18.20;93.70
47520;DHT22;33252;48.122;11.538;2023-05-23T19:28:04;18.20;93.90
47520;DHT22;33252;48.122;11.538;2023-05-23T19:30:30;18.10;93.80
47520;DHT22;33252;48.122;11.538;2023-05-23T19:32:56;18.10;93.70
47520;DHT22;33252;48.122;11.538;2023-05-23T19:35:26;18.10;93.70
47520;DHT22;33252;48.122;11.538;2023-05-23T19:37:51;18.10;94.00
47520;DHT22;33252;48.122;11.538;2023-05-23T19:40:17;18.10;93.80
47520;DHT22;33252;48.122;11.538;2023-05-23T19:42:45;18.20;94.00
47520;DHT22;33252;48.122;11.538;2023-05-23T19:45:11;18.10;93.90
47520;DHT22;33252;48.122;11.538;2023-05-23T19:47:38;18.00;94.20
47520;DHT22;33252;48.122;11.538;2023-05-23T19:50:05;17.90;94.30
47520;DHT22;33252;48.122;11.538;2023-05-23T19:52:31;17.90;94.50
47520;DHT22;33252;48.122;11.538;2023-05-23T19:54:57;17.90;94.60
47520;DHT22;33252;48.122;11.538;2023-05-23T19:57:22;17.90;94.80
47520;DHT22;33252;48.122;11.538;2023-05-23T19:59:50;17.80;94.50
47520;DHT22;33252;48.122;11.538;2023-05-23T20:02:16;17.70;95.00
47520;DHT22;33252;48.122;11.538;2023-05-23T20:04:42;17.60;94.70
47520;DHT22;33252;48.122;11.538;2023-05-23T20:07:08;17.70;94.80
47520;DHT22;33252;48.122;11.538;2023-05-23T20:09:34;17.70;95.20
47520;DHT22;33252;48.122;11.538;2023-05-23T20:11:59;17.70;95.00
47520;DHT22;33252;48.122;11.538;2023-05-23T20:14:25;17.70;95.30
47520;DHT22;33252;48.122;11.538;2023-05-23T20:16:51;17.70;95.00
47520;DHT22;33252;48.122;11.538;2023-05-23T20:19:18;17.60;95.60
47520;DHT22;33252;48.122;11.538;2023-05-23T20:21:44;17.50;95.50
47520;DHT22;33252;48.122;11.538;2023-05-23T20:24:09;17.50;95.60
47520;DHT22;33252;48.122;11.538;2023-05-23T20:26:36;17.50;95.30
47520;DHT22;33252;48.122;11.538;2023-05-23T20:29:02;17.50;95.70
47520;DHT22;33252;48.122;11.538;2023-05-23T20:31:28;17.50;95.20
47520;DHT22;33252;48.122;11.538;2023-05-23T20:33:54;17.40;95.40
47520;DHT22;33252;48.122;11.538;2023-05-23T20:36:19;17.60;95.20
47520;DHT22;33252;48.122;11.538;2023-05-23T20:38:46;17.50;95.10
47520;DHT22;33252;48.122;11.538;2023-05-23T20:41:12;17.40;95.30
47520;DHT22;33252;48.122;11.538;2023-05-23T20:43:39;17.30;95.70
47520;DHT22;33252;48.122;11.538;2023-05-23T20:46:05;17.40;95.80
47520;DHT22;33252;48.122;11.538;2023-05-23T20:48:34;17.20;95.60
47520;DHT22;33252;48.122;11.538;2023-05-23T20:51:00;17.30;95.80
47520;DHT22;33252;48.122;11.538;2023-05-23T20:53:26;17.10;96.00
47520;DHT22;33252;48.122;11.538;2023-05-23T20:55:52;17.10;96.30
47520;DHT22;33252;48.122;11.538;2023-05-23T20:58:18;17.10;96.00
47520;DHT22;33252;48.122;11.538;2023-05-23T21:00:44;17.10;96.10
47520;DHT22;33252;48.122;11.538;2023-05-23T21:03:09;17.00;96.50
47520;DHT22;33252;48.122;11.538;2023-05-23T21:05:35;17.00;96.50
47520;DHT22;33252;48.122;11.538;2023-05-23T21:08:01;17.00;96.20
47520;DHT22;33252;48.122;11.538;2023-05-23T21:10:27;17.00;96.40
47520;DHT22;33252;48.122;11.538;2023-05-23T21:12:53;17.00;96.80
47520;DHT22;33252;48.122;11.538;2023-05-23T21:15:19;16.90;96.90
47520;DHT22;33252;48.122;11.538;2023-05-23T21:17:44;16.90;96.60
47520;DHT22;33252;48.122;11.538;2023-05-23T21:20:10;16.90;96.60
47520;DHT22;33252;48.122;11.538;2023-05-23T21:22:36;16.70;96.80
47520;DHT22;33252;48.122;11.538;2023-05-23T21:25:02;16.70;97.10
47520;DHT22;33252;48.122;11.538;2023-05-23T21:27:28;16.60;97.00
47520;DHT22;33252;48.122;11.538;2023-05-23T21:29:54;16.60;97.20
47520;DHT22;33252;48.122;11.538;2023-05-23T21:32:20;16.50;97.60
47520;DHT22;33252;48.122;11.538;2023-05-23T21:34:47;16.50;97.70
47520;DHT22;33252;48.122;11.538;2023-05-23T21:37:12;16.40;97.70
47520;DHT22;33252;48.122;11.538;2023-05-23T21:39:38;16.30;97.80
47520;DHT22;33252;48.122;11.538;2023-05-23T21:42:05;16.20;98.00
47520;DHT22;33252;48.122;11.538;2023-05-23T21:44:31;16.20;98.30
47520;DHT22;33252;48.122;11.538;2023-05-23T21:46:57;16.30;98.30
47520;DHT22;33252;48.122;11.538;2023-05-23T21:49:23;16.20;98.10
47520;DHT22;33252;48.122;11.538;2023-05-23T21:51:49;16.30;98.20
47520;DHT22;33252;48.122;11.538;2023-05-23T21:54:14;16.20;98.40
47520;DHT22;33252;48.122;11.538;2023-05-23T21:56:40;16.20;98.30
47520;DHT22;33252;48.122;11.538;2023-05-23T21:59:06;16.10;98.70
47520;DHT22;33252;48.122;11.538;2023-05-23T22:01:32;15.90;98.90
47520;DHT22;33252;48.122;11.538;2023-05-23T22:03:57;16.10;99.00
47520;DHT22;33252;48.122;11.538;2023-05-23T22:06:23;16.10;98.90
47520;DHT22;33252;48.122;11.538;2023-05-23T22:08:49;16.20;99.00
47520;DHT22;33252;48.122;11.538;2023-05-23T22:11:14;16.00;99.10
47520;DHT22;33252;48.122;11.538;2023-05-23T22:13:40;15.80;99.50
47520;DHT22;33252;48.122;11.538;2023-05-23T22:16:06;15.90;99.30
47520;DHT22;33252;48.122;11.538;2023-05-23T22:18:32;15.80;99.50
47520;DHT22;33252;48.122;11.538;2023-05-23T22:21:03;15.80;99.80
47520;DHT22;33252;48.122;11.538;2023-05-23T22:23:29;15.80;99.90
47520;DHT22;33252;48.122;11.538;2023-05-23T22:25:54;15.90;99.60
47520;DHT22;33252;48.122;11.538;2023-05-23T22:28:21;15.90;99.90
47520;DHT22;33252;48.122;11.538;2023-05-23T22:30:46;15.70;99.90
47520;DHT22;33252;48.122;11.538;2023-05-23T22:33:12;15.80;99.90
47520;DHT22;33252;48.122;11.538;2023-05-23T22:35:41;15.60;99.90
47520;DHT22;33252;48.122;11.538;2023-05-23T22:38:08;15.60;99.90
47520;DHT22;33252;48.122;11.538;2023-05-23T22:40:35;15.70;99.90
47520;DHT22;33252;48.122;11.538;2023-05-23T22:43:03;15.70;99.90
47520;DHT22;33252;48.122;11.538;2023-05-23T22:45:29;15.70;99.90
47520;DHT22;33252;48.122;11.538;2023-05-23T22:47:57;15.70;99.90
47520;DHT22;33252;48.122;11.538;2023-05-23T22:50:25;15.60;99.90
47520;DHT22;33252;48.122;11.538;2023-05-23T22:52:52;15.50;99.90
47520;DHT22;33252;48.122;11.538;2023-05-23T22:55:17;15.50;99.90
47520;DHT22;33252;48.122;11.538;2023-05-23T22:57:43;15.40;99.90
47520;DHT22;33252;48.122;11.538;2023-05-23T23:00:09;15.30;99.90
47520;DHT22;33252;48.122;11.538;2023-05-23T23:02:35;15.30;99.90
47520;DHT22;33252;48.122;11.538;2023-05-23T23:05:02;15.40;99.90
47520;DHT22;33252;48.122;11.538;2023-05-23T23:07:28;15.40;99.90
47520;DHT22;33252;48.122;11.538;2023-05-23T23:09:56;15.30;99.90
47520;DHT22;33252;48.122;11.538;2023-05-23T23:12:22;15.30;99.90
47520;DHT22;33252;48.122;11.538;2023-05-23T23:14:47;15.50;99.90
47520;DHT22;33252;48.122;11.538;2023-05-23T23:17:13;15.60;99.90
47520;DHT22;33252;48.122;11.538;2023-05-23T23:19:39;15.60;99.90
47520;DHT22;33252;48.122;11.538;2023-05-23T23:22:05;15.50;99.90
47520;DHT22;33252;48.122;11.538;2023-05-23T23:24:31;15.50;99.90
47520;DHT22;33252;48.122;11.538;2023-05-23T23:26:56;15.40;99.90
47520;DHT22;33252;48.122;11.538;2023-05-23T23:29:22;15.10;99.90
47520;DHT22;33252;48.122;11.538;2023-05-23T23:31:48;15.10;99.90
47520;DHT22;33252;48.122;11.538;2023-05-23T23:34:13;15.10;99.90
47520;DHT22;33252;48.122;11.538;2023-05-23T23:36:39;14.90;99.90
47520;DHT22;33252;48.122;11.538;2023-05-23T23:39:05;15.10;99.90
47520;DHT22;33252;48.122;11.538;2023-05-23T23:41:31;15.20;99.90
47520;DHT22;33252;48.122;11.538;2023-05-23T23:43:56;15.30;99.90
47520;DHT22;33252;48.122;11.538;2023-05-23T23:46:22;15.30;99.90
47520;DHT22;33252;48.122;11.538;2023-05-23T23:48:47;15.10;99.90
47520;DHT22;33252;48.122;11.538;2023-05-23T23:51:13;15.10;99.90
47520;DHT22;33252;48.122;11.538;2023-05-23T23:53:39;15.00;99.90
47520;DHT22;33252;48.122;11.538;2023-05-23T23:56:04;14.90;99.90
47520;DHT22;33252;48.122;11.538;2023-05-23T23:58:30;15.10;99.90
